Ramsar, Iran

11:49 AM IRDT on July 28, 2014 (GMT +0430)
Ramsar (OINR) Elev -66 ft | 36.91 °N, 50.68 °E | Change Station

Current weather conditions updated 19 minutes ago

Mostly Cloudy
Mostly Cloudy
84 °F
Feels Like 84 °F
N
21
Wind Variable Wind from NW

Today is forecast to be Cooler than yesterday. Showers tonight.

Today
High -- | Low -- °F
--% Chance of Precip.
Yesterday
High -- | Low -- °F
Precip. -- in
6:09 AM 8:17 PM
New Moon, 2% visible
Pressure 29.83 in
Visibility 6.2 miles
Clouds Few 3000 ft
Scattered Clouds 3300 ft
Mostly Cloudy 9000 ft
Heat Index 84 °F
Dew Point 61 °F
Humidity 45%
Rainfall 0.00 in
Snow Depth Not available.
UV 5 out of 12
Pollen Not available.
Air Quality Not available.
Flu Activity Not available.
METAR OINR 280700Z 31018KT 9999 FEW030CB SCT033 BKN090 29/16 Q1010

More Conditions Fewer Conditions

Pressure 29.83 in
Visibility 6.2 miles
Clouds Few 3000 ft
Scattered Clouds 3300 ft
Mostly Cloudy 9000 ft
Heat Index 84 °F
Dew Point 61 °F
Humidity 45%
Rainfall 0.00 in
Snow Depth Not available.
UV 5 out of 12
Pollen Not available.
Air Quality Not available.
Flu Activity Not available.
METAR OINR 280700Z 31018KT 9999 FEW030CB SCT033 BKN090 29/16 Q1010

More Conditions Fewer Conditions

10-Day Weather Forecast

Almanac

Astronomy

Jul. 28, 2014 Rise Set
Actual Time 6:09 AM IRDT 8:17 PM IRDT
Civil Twilight 5:40 AM IRDT 8:46 PM IRDT
Nautical Twilight 5:04 AM IRDT 9:22 PM IRDT
Astronomical Twilight 4:26 AM IRDT 10:00 PM IRDT
Moon 7:26 AM IRDT 8:51 PM IRDT
Length of Visible Light 15h 06m
Length of Day
14h 08m
Tomorrow will be 1m 40s shorter.
New Moon, 2% of the Moon is Illuminated
Today
New Moon
Aug 3
First Quarter
Aug 10
Full
Aug 17
Last Quarter
Aug 25
New

Yesterday's Extremes

Country Highs Country Lows

Community

WunderPhotos

Upload Photos

1,738,292 photos uploaded!

Nearby

Snow Depth

Not available.

Earthquake Activity

City Distance Mag. Time & Date
No recent earthquake activity has been reported nearby.
Minimum magnitude displayed is 2.5.

Coastal Water Temperatures

Place Temperature
No Stations Reporting

Nearby Weather Stations

There are no personal weather stations in this area.